sensor_id;sensor_type;location;lat;lon;timestamp;pressure;altitude;pressure_sealevel;temperature;humidity
7264;BME280;3673;52.480;13.348;2022-12-26T00:00:00;100549.16;;;13.57;69.48
7264;BME280;3673;52.480;13.348;2022-12-26T00:02:27;100545.38;;;13.73;69.07
7264;BME280;3673;52.480;13.348;2022-12-26T00:04:54;100543.50;;;13.78;68.79
7264;BME280;3673;52.480;13.348;2022-12-26T00:07:21;100552.38;;;13.72;68.64
7264;BME280;3673;52.480;13.348;2022-12-26T00:09:47;100548.22;;;13.61;68.96
7264;BME280;3673;52.480;13.348;2022-12-26T00:12:15;100537.53;;;13.68;68.96
7264;BME280;3673;52.480;13.348;2022-12-26T00:14:42;100536.66;;;13.68;68.78
7264;BME280;3673;52.480;13.348;2022-12-26T00:17:09;100548.75;;;13.78;68.31
7264;BME280;3673;52.480;13.348;2022-12-26T00:19:36;100535.72;;;13.73;68.46
7264;BME280;3673;52.480;13.348;2022-12-26T00:22:03;100527.84;;;13.73;68.72
7264;BME280;3673;52.480;13.348;2022-12-26T00:24:29;100521.41;;;13.89;68.44
7264;BME280;3673;52.480;13.348;2022-12-26T00:26:56;100516.16;;;13.89;68.12
7264;BME280;3673;52.480;13.348;2022-12-26T00:29:24;100512.81;;;13.80;68.39
7264;BME280;3673;52.480;13.348;2022-12-26T00:31:51;100512.69;;;13.87;68.61
7264;BME280;3673;52.480;13.348;2022-12-26T00:34:18;100523.63;;;13.63;69.22
7264;BME280;3673;52.480;13.348;2022-12-26T00:36:45;100529.06;;;13.51;69.43
7264;BME280;3673;52.480;13.348;2022-12-26T00:39:11;100530.56;;;13.67;69.35
7264;BME280;3673;52.480;13.348;2022-12-26T00:41:38;100522.44;;;13.81;69.13
7264;BME280;3673;52.480;13.348;2022-12-26T00:44:05;100518.91;;;13.82;68.52
7264;BME280;3673;52.480;13.348;2022-12-26T00:46:33;100512.25;;;13.61;68.68
7264;BME280;3673;52.480;13.348;2022-12-26T00:49:00;100506.78;;;13.73;68.91
7264;BME280;3673;52.480;13.348;2022-12-26T00:51:27;100503.16;;;13.80;68.65
7264;BME280;3673;52.480;13.348;2022-12-26T00:53:53;100503.31;;;13.73;68.37
7264;BME280;3673;52.480;13.348;2022-12-26T00:56:20;100510.06;;;13.86;68.50
7264;BME280;3673;52.480;13.348;2022-12-26T00:58:47;100508.66;;;13.67;68.47
7264;BME280;3673;52.480;13.348;2022-12-26T01:01:18;100499.53;;;13.87;68.51
7264;BME280;3673;52.480;13.348;2022-12-26T01:03:48;100490.91;;;13.78;68.61
7264;BME280;3673;52.480;13.348;2022-12-26T01:06:15;100486.47;;;13.83;68.63
7264;BME280;3673;52.480;13.348;2022-12-26T01:08:42;100489.16;;;13.80;68.58
7264;BME280;3673;52.480;13.348;2022-12-26T01:11:11;100491.34;;;14.03;68.11
7264;BME280;3673;52.480;13.348;2022-12-26T01:13:39;100484.91;;;13.71;69.02
7264;BME280;3673;52.480;13.348;2022-12-26T01:16:07;100484.16;;;13.65;68.92
7264;BME280;3673;52.480;13.348;2022-12-26T01:18:34;100473.38;;;13.80;68.71
7264;BME280;3673;52.480;13.348;2022-12-26T01:21:07;100473.44;;;13.77;68.86
7264;BME280;3673;52.480;13.348;2022-12-26T01:23:34;100465.69;;;13.68;68.81
7264;BME280;3673;52.480;13.348;2022-12-26T01:26:01;100476.88;;;13.79;69.18
7264;BME280;3673;52.480;13.348;2022-12-26T01:28:29;100476.25;;;13.65;68.69
7264;BME280;3673;52.480;13.348;2022-12-26T01:31:01;100482.19;;;13.77;68.85
7264;BME280;3673;52.480;13.348;2022-12-26T01:33:28;100487.53;;;13.71;68.46
7264;BME280;3673;52.480;13.348;2022-12-26T01:35:55;100485.13;;;13.61;69.02
7264;BME280;3673;52.480;13.348;2022-12-26T01:38:24;100481.28;;;13.78;68.33
7264;BME280;3673;52.480;13.348;2022-12-26T01:40:50;100474.25;;;13.80;68.37
7264;BME280;3673;52.480;13.348;2022-12-26T01:43:54;100468.72;;;13.94;68.17
7264;BME280;3673;52.480;13.348;2022-12-26T01:46:26;100467.88;;;13.92;67.82
7264;BME280;3673;52.480;13.348;2022-12-26T01:48:56;100468.72;;;13.94;67.92
7264;BME280;3673;52.480;13.348;2022-12-26T01:51:29;100460.06;;;13.89;67.98
7264;BME280;3673;52.480;13.348;2022-12-26T01:54:00;100457.97;;;14.05;67.59
7264;BME280;3673;52.480;13.348;2022-12-26T01:56:31;100454.97;;;13.80;67.77
7264;BME280;3673;52.480;13.348;2022-12-26T01:59:04;100457.72;;;13.72;68.36
7264;BME280;3673;52.480;13.348;2022-12-26T02:01:35;100457.34;;;13.93;68.16
7264;BME280;3673;52.480;13.348;2022-12-26T02:04:08;100465.44;;;13.83;68.12
7264;BME280;3673;52.480;13.348;2022-12-26T02:06:53;100461.91;;;13.84;68.25
7264;BME280;3673;52.480;13.348;2022-12-26T02:09:22;100459.97;;;13.93;67.93
7264;BME280;3673;52.480;13.348;2022-12-26T02:11:52;100459.72;;;14.07;67.07
7264;BME280;3673;52.480;13.348;2022-12-26T02:14:21;100468.88;;;13.85;67.76
7264;BME280;3673;52.480;13.348;2022-12-26T02:16:48;100460.72;;;13.99;67.73
7264;BME280;3673;52.480;13.348;2022-12-26T02:19:28;100460.34;;;14.18;66.91
7264;BME280;3673;52.480;13.348;2022-12-26T02:25:32;100446.81;;;13.93;67.51
7264;BME280;3673;52.480;13.348;2022-12-26T02:28:42;100457.53;;;14.27;66.69
7264;BME280;3673;52.480;13.348;2022-12-26T02:31:18;100457.72;;;14.18;66.52
7264;BME280;3673;52.480;13.348;2022-12-26T02:34:00;100446.00;;;14.34;66.36
7264;BME280;3673;52.480;13.348;2022-12-26T02:36:56;100457.47;;;14.30;66.36
7264;BME280;3673;52.480;13.348;2022-12-26T02:39:44;100450.22;;;14.43;66.15
7264;BME280;3673;52.480;13.348;2022-12-26T02:42:26;100448.00;;;14.22;66.55
7264;BME280;3673;52.480;13.348;2022-12-26T02:45:02;100445.19;;;14.31;66.61
7264;BME280;3673;52.480;13.348;2022-12-26T02:47:56;100430.13;;;14.39;66.29
7264;BME280;3673;52.480;13.348;2022-12-26T02:50:35;100437.31;;;14.31;66.43
7264;BME280;3673;52.480;13.348;2022-12-26T02:53:31;100440.34;;;14.54;65.71
7264;BME280;3673;52.480;13.348;2022-12-26T02:56:29;100440.22;;;14.59;65.57
7264;BME280;3673;52.480;13.348;2022-12-26T02:59:21;100455.22;;;14.55;65.58
7264;BME280;3673;52.480;13.348;2022-12-26T03:02:21;100454.94;;;14.26;66.55
7264;BME280;3673;52.480;13.348;2022-12-26T03:05:15;100460.59;;;14.51;65.87
7264;BME280;3673;52.480;13.348;2022-12-26T03:08:02;100455.19;;;14.57;65.80
7264;BME280;3673;52.480;13.348;2022-12-26T03:10:50;100456.94;;;14.56;65.60
7264;BME280;3673;52.480;13.348;2022-12-26T03:13:36;100466.69;;;14.53;65.85
7264;BME280;3673;52.480;13.348;2022-12-26T03:16:08;100464.13;;;14.50;65.63
7264;BME280;3673;52.480;13.348;2022-12-26T03:18:58;100455.81;;;14.68;65.35
7264;BME280;3673;52.480;13.348;2022-12-26T03:21:31;100457.69;;;14.63;65.32
7264;BME280;3673;52.480;13.348;2022-12-26T03:23:59;100451.31;;;14.73;65.27
7264;BME280;3673;52.480;13.348;2022-12-26T03:26:30;100453.50;;;14.54;65.75
7264;BME280;3673;52.480;13.348;2022-12-26T03:29:09;100461.75;;;14.37;66.04
7264;BME280;3673;52.480;13.348;2022-12-26T03:31:55;100460.34;;;14.61;65.69
7264;BME280;3673;52.480;13.348;2022-12-26T03:34:22;100468.50;;;14.51;66.11
7264;BME280;3673;52.480;13.348;2022-12-26T03:37:20;100464.41;;;14.76;65.23
7264;BME280;3673;52.480;13.348;2022-12-26T03:40:03;100455.13;;;14.58;65.33
7264;BME280;3673;52.480;13.348;2022-12-26T03:42:59;100455.06;;;14.61;65.69
7264;BME280;3673;52.480;13.348;2022-12-26T03:45:50;100454.69;;;14.39;66.27
7264;BME280;3673;52.480;13.348;2022-12-26T03:48:44;100447.25;;;14.58;66.03
7264;BME280;3673;52.480;13.348;2022-12-26T03:51:40;100452.25;;;14.70;65.34
7264;BME280;3673;52.480;13.348;2022-12-26T03:54:34;100460.22;;;14.67;65.72
7264;BME280;3673;52.480;13.348;2022-12-26T03:57:26;100473.56;;;14.58;65.98
7264;BME280;3673;52.480;13.348;2022-12-26T04:00:16;100466.25;;;14.72;65.25
7264;BME280;3673;52.480;13.348;2022-12-26T04:03:06;100468.66;;;14.81;65.44
7264;BME280;3673;52.480;13.348;2022-12-26T04:05:52;100439.97;;;14.69;65.24
7264;BME280;3673;52.480;13.348;2022-12-26T04:08:45;100468.00;;;14.72;65.16
7264;BME280;3673;52.480;13.348;2022-12-26T04:11:34;100487.31;;;14.72;65.33
7264;BME280;3673;52.480;13.348;2022-12-26T04:14:43;100494.94;;;14.84;65.01
7264;BME280;3673;52.480;13.348;2022-12-26T04:17:40;100485.09;;;14.94;64.72
7264;BME280;3673;52.480;13.348;2022-12-26T04:20:39;100474.13;;;14.74;65.12
7264;BME280;3673;52.480;13.348;2022-12-26T04:23:13;100477.19;;;14.92;64.65
7264;BME280;3673;52.480;13.348;2022-12-26T04:26:05;100463.47;;;14.78;65.16
7264;BME280;3673;52.480;13.348;2022-12-26T04:28:53;100473.97;;;14.80;65.22
7264;BME280;3673;52.480;13.348;2022-12-26T04:31:44;100484.44;;;14.83;65.10
7264;BME280;3673;52.480;13.348;2022-12-26T04:34:37;100489.25;;;15.03;64.45
7264;BME280;3673;52.480;13.348;2022-12-26T04:37:25;100482.38;;;14.97;64.18
7264;BME280;3673;52.480;13.348;2022-12-26T04:40:18;100481.66;;;14.90;64.79
7264;BME280;3673;52.480;13.348;2022-12-26T04:43:04;100489.19;;;15.06;64.12
7264;BME280;3673;52.480;13.348;2022-12-26T04:45:51;100491.63;;;14.76;64.96
7264;BME280;3673;52.480;13.348;2022-12-26T04:48:18;100488.69;;;14.49;65.41
7264;BME280;3673;52.480;13.348;2022-12-26T04:51:04;100484.22;;;14.93;64.60
7264;BME280;3673;52.480;13.348;2022-12-26T04:53:30;100494.69;;;14.95;64.41
7264;BME280;3673;52.480;13.348;2022-12-26T04:55:57;100490.44;;;14.89;64.73
7264;BME280;3673;52.480;13.348;2022-12-26T04:58:24;100494.81;;;14.90;64.60
7264;BME280;3673;52.480;13.348;2022-12-26T05:00:53;100493.97;;;14.88;64.58
7264;BME280;3673;52.480;13.348;2022-12-26T05:03:40;100486.84;;;14.93;64.45
7264;BME280;3673;52.480;13.348;2022-12-26T05:06:25;100490.53;;;14.85;65.14
7264;BME280;3673;52.480;13.348;2022-12-26T05:09:24;100499.94;;;14.97;64.75
7264;BME280;3673;52.480;13.348;2022-12-26T05:12:00;100498.00;;;14.65;65.32
7264;BME280;3673;52.480;13.348;2022-12-26T05:14:26;100493.97;;;14.88;64.50
7264;BME280;3673;52.480;13.348;2022-12-26T05:16:57;100505.38;;;14.89;64.80
7264;BME280;3673;52.480;13.348;2022-12-26T05:19:42;100507.69;;;14.64;64.97
7264;BME280;3673;52.480;13.348;2022-12-26T05:22:38;100518.09;;;14.70;65.27
7264;BME280;3673;52.480;13.348;2022-12-26T05:25:26;100515.81;;;14.52;66.09
7264;BME280;3673;52.480;13.348;2022-12-26T05:28:14;100521.47;;;14.77;65.46
7264;BME280;3673;52.480;13.348;2022-12-26T05:30:59;100510.13;;;14.72;65.44
7264;BME280;3673;52.480;13.348;2022-12-26T05:33:27;100517.16;;;14.73;65.07
7264;BME280;3673;52.480;13.348;2022-12-26T05:36:12;100521.47;;;14.77;64.95
7264;BME280;3673;52.480;13.348;2022-12-26T05:38:39;100514.16;;;14.89;64.67
7264;BME280;3673;52.480;13.348;2022-12-26T05:41:06;100520.53;;;14.78;65.04
7264;BME280;3673;52.480;13.348;2022-12-26T05:43:33;100525.00;;;15.14;63.78
7264;BME280;3673;52.480;13.348;2022-12-26T05:46:00;100522.56;;;15.05;64.29
7264;BME280;3673;52.480;13.348;2022-12-26T05:48:28;100518.00;;;15.13;64.00
7264;BME280;3673;52.480;13.348;2022-12-26T05:50:57;100522.41;;;15.13;63.72
7264;BME280;3673;52.480;13.348;2022-12-26T05:53:25;100516.63;;;14.95;64.20
7264;BME280;3673;52.480;13.348;2022-12-26T05:55:52;100527.75;;;15.10;63.90
7264;BME280;3673;52.480;13.348;2022-12-26T05:58:19;100529.09;;;14.89;64.52
7264;BME280;3673;52.480;13.348;2022-12-26T06:00:46;100527.34;;;14.88;64.54
7264;BME280;3673;52.480;13.348;2022-12-26T06:03:13;100523.50;;;15.04;64.08
7264;BME280;3673;52.480;13.348;2022-12-26T06:05:41;100520.06;;;14.99;64.14
7264;BME280;3673;52.480;13.348;2022-12-26T06:08:08;100517.50;;;14.96;64.20
7264;BME280;3673;52.480;13.348;2022-12-26T06:10:35;100525.06;;;15.11;63.35
7264;BME280;3673;52.480;13.348;2022-12-26T06:13:01;100529.50;;;14.71;64.49
7264;BME280;3673;52.480;13.348;2022-12-26T06:15:28;100539.75;;;15.21;63.37
7264;BME280;3673;52.480;13.348;2022-12-26T06:17:55;100530.53;;;15.40;62.68
7264;BME280;3673;52.480;13.348;2022-12-26T06:20:22;100523.50;;;15.03;63.88
7264;BME280;3673;52.480;13.348;2022-12-26T06:22:50;100527.66;;;15.13;63.36
7264;BME280;3673;52.480;13.348;2022-12-26T06:25:17;100528.22;;;15.27;63.01
7264;BME280;3673;52.480;13.348;2022-12-26T06:27:44;100527.53;;;15.19;62.99
7264;BME280;3673;52.480;13.348;2022-12-26T06:30:11;100527.44;;;15.22;62.80
7264;BME280;3673;52.480;13.348;2022-12-26T06:32:38;100531.28;;;15.45;62.30
7264;BME280;3673;52.480;13.348;2022-12-26T06:35:05;100529.75;;;15.35;62.50
7264;BME280;3673;52.480;13.348;2022-12-26T06:37:33;100544.66;;;14.98;63.22
7264;BME280;3673;52.480;13.348;2022-12-26T06:40:01;100548.38;;;15.29;62.55
7264;BME280;3673;52.480;13.348;2022-12-26T06:42:28;100567.03;;;15.20;63.02
7264;BME280;3673;52.480;13.348;2022-12-26T06:44:55;100558.59;;;15.43;62.28
7264;BME280;3673;52.480;13.348;2022-12-26T06:47:21;100561.72;;;15.22;62.96
7264;BME280;3673;52.480;13.348;2022-12-26T06:49:48;100562.88;;;15.47;62.02
7264;BME280;3673;52.480;13.348;2022-12-26T06:52:15;100573.63;;;15.38;62.32
7264;BME280;3673;52.480;13.348;2022-12-26T06:54:42;100578.91;;;15.38;62.16
7264;BME280;3673;52.480;13.348;2022-12-26T06:57:10;100588.94;;;15.22;62.84
7264;BME280;3673;52.480;13.348;2022-12-26T06:59:36;100589.38;;;15.01;63.16
7264;BME280;3673;52.480;13.348;2022-12-26T07:02:03;100592.00;;;15.04;63.54
7264;BME280;3673;52.480;13.348;2022-12-26T07:04:30;100596.19;;;15.11;63.22
7264;BME280;3673;52.480;13.348;2022-12-26T07:06:57;100589.03;;;15.18;63.21
7264;BME280;3673;52.480;13.348;2022-12-26T07:09:23;100581.75;;;15.29;62.69
7264;BME280;3673;52.480;13.348;2022-12-26T07:11:50;100587.34;;;15.15;63.24
7264;BME280;3673;52.480;13.348;2022-12-26T07:14:18;100591.44;;;15.28;62.81
7264;BME280;3673;52.480;13.348;2022-12-26T07:16:45;100604.50;;;15.33;62.48
7264;BME280;3673;52.480;13.348;2022-12-26T07:19:13;100598.09;;;15.05;63.54
7264;BME280;3673;52.480;13.348;2022-12-26T07:21:41;100601.31;;;15.19;63.02
7264;BME280;3673;52.480;13.348;2022-12-26T07:24:14;100598.00;;;15.09;63.29
7264;BME280;3673;52.480;13.348;2022-12-26T07:26:42;100596.56;;;14.94;63.78
7264;BME280;3673;52.480;13.348;2022-12-26T07:29:10;100588.47;;;15.04;63.26
7264;BME280;3673;52.480;13.348;2022-12-26T07:31:39;100595.16;;;15.18;63.12
7264;BME280;3673;52.480;13.348;2022-12-26T07:34:07;100591.06;;;15.05;63.52
7264;BME280;3673;52.480;13.348;2022-12-26T07:36:34;100589.47;;;14.98;63.63
7264;BME280;3673;52.480;13.348;2022-12-26T07:39:01;100593.53;;;15.13;63.23
7264;BME280;3673;52.480;13.348;2022-12-26T07:41:29;100593.38;;;15.20;62.87
7264;BME280;3673;52.480;13.348;2022-12-26T07:44:14;100586.38;;;15.19;63.05
7264;BME280;3673;52.480;13.348;2022-12-26T07:46:42;100586.44;;;15.16;63.15
7264;BME280;3673;52.480;13.348;2022-12-26T07:49:11;100582.28;;;15.06;63.16
7264;BME280;3673;52.480;13.348;2022-12-26T07:51:38;100600.88;;;14.99;64.04
7264;BME280;3673;52.480;13.348;2022-12-26T07:54:06;100611.03;;;15.17;63.15
7264;BME280;3673;52.480;13.348;2022-12-26T07:56:33;100612.88;;;15.13;63.03
7264;BME280;3673;52.480;13.348;2022-12-26T07:59:00;100625.16;;;15.13;63.44
7264;BME280;3673;52.480;13.348;2022-12-26T08:01:27;100624.16;;;15.18;63.33
7264;BME280;3673;52.480;13.348;2022-12-26T08:03:55;100623.25;;;15.19;63.17
7264;BME280;3673;52.480;13.348;2022-12-26T08:06:22;100630.41;;;15.14;63.35
7264;BME280;3673;52.480;13.348;2022-12-26T08:08:49;100619.75;;;15.20;63.30
7264;BME280;3673;52.480;13.348;2022-12-26T08:11:19;100617.34;;;15.08;63.57
7264;BME280;3673;52.480;13.348;2022-12-26T08:13:46;100613.59;;;15.18;63.58
7264;BME280;3673;52.480;13.348;2022-12-26T08:16:13;100611.31;;;15.03;63.60
7264;BME280;3673;52.480;13.348;2022-12-26T08:18:41;100604.47;;;14.94;63.96
7264;BME280;3673;52.480;13.348;2022-12-26T08:21:09;100606.72;;;15.13;63.75
7264;BME280;3673;52.480;13.348;2022-12-26T08:23:37;100613.44;;;15.27;62.96
7264;BME280;3673;52.480;13.348;2022-12-26T08:26:05;100611.63;;;15.28;63.20
7264;BME280;3673;52.480;13.348;2022-12-26T08:28:32;100617.41;;;15.05;63.53
7264;BME280;3673;52.480;13.348;2022-12-26T08:30:59;100615.66;;;15.06;63.67
7264;BME280;3673;52.480;13.348;2022-12-26T08:33:26;100616.38;;;15.14;63.72
7264;BME280;3673;52.480;13.348;2022-12-26T08:35:52;100618.78;;;15.24;63.22
7264;BME280;3673;52.480;13.348;2022-12-26T08:38:21;100616.09;;;15.26;63.17
7264;BME280;3673;52.480;13.348;2022-12-26T08:40:53;100618.41;;;15.39;62.91
7264;BME280;3673;52.480;13.348;2022-12-26T08:43:22;100619.47;;;15.32;63.18
7264;BME280;3673;52.480;13.348;2022-12-26T08:45:57;100622.38;;;15.20;63.69
7264;BME280;3673;52.480;13.348;2022-12-26T08:48:24;100608.59;;;15.48;62.54
7264;BME280;3673;52.480;13.348;2022-12-26T08:50:56;100617.09;;;15.60;62.43
7264;BME280;3673;52.480;13.348;2022-12-26T08:53:25;100620.91;;;15.45;62.67
7264;BME280;3673;52.480;13.348;2022-12-26T08:55:53;100617.03;;;15.62;62.16
7264;BME280;3673;52.480;13.348;2022-12-26T08:58:21;100622.81;;;15.39;62.93
7264;BME280;3673;52.480;13.348;2022-12-26T09:00:47;100624.81;;;15.28;63.34
7264;BME280;3673;52.480;13.348;2022-12-26T09:03:14;100625.47;;;15.39;63.03
7264;BME280;3673;52.480;13.348;2022-12-26T09:05:41;100630.09;;;15.28;63.39
7264;BME280;3673;52.480;13.348;2022-12-26T09:08:09;100635.91;;;15.43;62.95
7264;BME280;3673;52.480;13.348;2022-12-26T09:10:37;100650.69;;;15.11;63.85
7264;BME280;3673;52.480;13.348;2022-12-26T09:13:04;100652.25;;;15.19;63.52
7264;BME280;3673;52.480;13.348;2022-12-26T09:15:31;100654.13;;;15.56;62.89
7264;BME280;3673;52.480;13.348;2022-12-26T09:17:57;100662.19;;;15.48;62.95
7264;BME280;3673;52.480;13.348;2022-12-26T09:20:24;100665.72;;;15.45;63.29
7264;BME280;3673;52.480;13.348;2022-12-26T09:22:51;100672.47;;;15.19;63.21
7264;BME280;3673;52.480;13.348;2022-12-26T09:25:20;100676.41;;;15.39;63.14
7264;BME280;3673;52.480;13.348;2022-12-26T09:27:49;100671.59;;;15.60;62.77
7264;BME280;3673;52.480;13.348;2022-12-26T09:30:18;100663.94;;;15.49;62.55
7264;BME280;3673;52.480;13.348;2022-12-26T09:32:45;100680.44;;;15.16;63.46
7264;BME280;3673;52.480;13.348;2022-12-26T09:35:12;100670.78;;;15.15;63.99
7264;BME280;3673;52.480;13.348;2022-12-26T09:37:39;100669.69;;;15.26;63.41
7264;BME280;3673;52.480;13.348;2022-12-26T09:40:21;100661.63;;;15.32;63.15
7264;BME280;3673;52.480;13.348;2022-12-26T09:43:01;100667.31;;;15.13;63.51
7264;BME280;3673;52.480;13.348;2022-12-26T09:45:50;100674.06;;;15.26;63.05
7264;BME280;3673;52.480;13.348;2022-12-26T09:48:29;100668.19;;;15.13;63.10
7264;BME280;3673;52.480;13.348;2022-12-26T09:50:57;100662.50;;;15.33;62.39
7264;BME280;3673;52.480;13.348;2022-12-26T09:53:29;100664.41;;;15.25;62.52
7264;BME280;3673;52.480;13.348;2022-12-26T09:56:01;100663.66;;;15.20;62.85
7264;BME280;3673;52.480;13.348;2022-12-26T09:58:33;100660.81;;;15.29;62.06
7264;BME280;3673;52.480;13.348;2022-12-26T10:01:10;100667.03;;;15.26;62.22
7264;BME280;3673;52.480;13.348;2022-12-26T10:03:43;100673.69;;;14.57;63.63
7264;BME280;3673;52.480;13.348;2022-12-26T10:06:14;100679.69;;;15.11;62.64
7264;BME280;3673;52.480;13.348;2022-12-26T10:09:17;100681.78;;;15.35;62.46
7264;BME280;3673;52.480;13.348;2022-12-26T10:11:58;100690.97;;;15.16;63.00
7264;BME280;3673;52.480;13.348;2022-12-26T10:14:37;100690.75;;;15.26;62.51
7264;BME280;3673;52.480;13.348;2022-12-26T10:17:11;100693.31;;;15.31;62.54
7264;BME280;3673;52.480;13.348;2022-12-26T10:20:03;100700.41;;;15.27;62.81
7264;BME280;3673;52.480;13.348;2022-12-26T10:23:04;100694.59;;;15.53;62.17
7264;BME280;3673;52.480;13.348;2022-12-26T10:25:40;100698.88;;;15.59;61.64
7264;BME280;3673;52.480;13.348;2022-12-26T10:31:04;100696.63;;;15.40;62.32
7264;BME280;3673;52.480;13.348;2022-12-26T10:33:40;100677.38;;;15.35;62.46
7264;BME280;3673;52.480;13.348;2022-12-26T10:36:20;100683.69;;;15.28;62.23
7264;BME280;3673;52.480;13.348;2022-12-26T10:38:49;100678.25;;;15.34;61.93
7264;BME280;3673;52.480;13.348;2022-12-26T10:41:24;100678.91;;;15.45;61.61
7264;BME280;3673;52.480;13.348;2022-12-26T10:43:52;100679.75;;;15.06;62.45
7264;BME280;3673;52.480;13.348;2022-12-26T10:47:07;100685.50;;;15.25;62.21
7264;BME280;3673;52.480;13.348;2022-12-26T10:49:37;100678.75;;;15.12;61.75
7264;BME280;3673;52.480;13.348;2022-12-26T10:52:04;100676.84;;;15.20;61.85
7264;BME280;3673;52.480;13.348;2022-12-26T10:54:31;100688.13;;;15.26;61.68
7264;BME280;3673;52.480;13.348;2022-12-26T10:56:58;100686.53;;;15.61;60.54
7264;BME280;3673;52.480;13.348;2022-12-26T10:59:40;100686.97;;;14.97;61.65
7264;BME280;3673;52.480;13.348;2022-12-26T11:02:24;100688.16;;;15.25;60.99
7264;BME280;3673;52.480;13.348;2022-12-26T11:05:05;100693.59;;;15.17;61.28
7264;BME280;3673;52.480;13.348;2022-12-26T11:07:35;100697.38;;;15.04;60.91
7264;BME280;3673;52.480;13.348;2022-12-26T11:10:12;100690.97;;;15.16;61.16
7264;BME280;3673;52.480;13.348;2022-12-26T11:12:43;100688.78;;;15.36;60.08
7264;BME280;3673;52.480;13.348;2022-12-26T11:15:23;100700.09;;;15.00;60.84
7264;BME280;3673;52.480;13.348;2022-12-26T11:17:53;100699.19;;;15.01;60.60
7264;BME280;3673;52.480;13.348;2022-12-26T11:20:31;100695.69;;;15.41;60.01
7264;BME280;3673;52.480;13.348;2022-12-26T11:23:26;100702.84;;;15.36;59.73
7264;BME280;3673;52.480;13.348;2022-12-26T11:25:58;100692.31;;;15.36;59.70
7264;BME280;3673;52.480;13.348;2022-12-26T11:28:29;100687.66;;;15.08;59.97
7264;BME280;3673;52.480;13.348;2022-12-26T11:30:57;100679.75;;;15.08;59.99
7264;BME280;3673;52.480;13.348;2022-12-26T11:33:29;100660.44;;;15.07;59.89
7264;BME280;3673;52.480;13.348;2022-12-26T11:36:08;100665.50;;;15.15;59.64
7264;BME280;3673;52.480;13.348;2022-12-26T11:38:48;100658.44;;;15.58;58.97
7264;BME280;3673;52.480;13.348;2022-12-26T11:41:30;100669.84;;;15.60;58.81
7264;BME280;3673;52.480;13.348;2022-12-26T11:44:04;100668.91;;;15.61;58.67
7264;BME280;3673;52.480;13.348;2022-12-26T11:46:40;100680.00;;;15.37;59.44
7264;BME280;3673;52.480;13.348;2022-12-26T11:49:18;100689.94;;;15.24;59.55
7264;BME280;3673;52.480;13.348;2022-12-26T11:51:48;100681.03;;;15.30;59.89
7264;BME280;3673;52.480;13.348;2022-12-26T11:54:24;100684.69;;;15.23;60.27
7264;BME280;3673;52.480;13.348;2022-12-26T11:57:18;100696.78;;;15.31;59.83
7264;BME280;3673;52.480;13.348;2022-12-26T11:59:48;100696.53;;;15.02;60.88
7264;BME280;3673;52.480;13.348;2022-12-26T12:02:23;100688.88;;;14.88;61.89
7264;BME280;3673;52.480;13.348;2022-12-26T12:04:58;100681.16;;;15.24;60.66
7264;BME280;3673;52.480;13.348;2022-12-26T12:07:51;100683.13;;;15.14;60.66
7264;BME280;3673;52.480;13.348;2022-12-26T12:10:55;100699.69;;;14.75;62.13
7264;BME280;3673;52.480;13.348;2022-12-26T12:13:43;100688.00;;;14.89;61.88
7264;BME280;3673;52.480;13.348;2022-12-26T12:16:34;100680.09;;;14.91;61.84
7264;BME280;3673;52.480;13.348;2022-12-26T12:19:20;100681.31;;;15.16;60.60
7264;BME280;3673;52.480;13.348;2022-12-26T12:22:08;100682.75;;;14.88;61.45
7264;BME280;3673;52.480;13.348;2022-12-26T12:24:51;100682.25;;;15.12;61.12
7264;BME280;3673;52.480;13.348;2022-12-26T12:27:29;100662.78;;;15.21;60.62
7264;BME280;3673;52.480;13.348;2022-12-26T12:30:17;100665.69;;;15.07;61.22
7264;BME280;3673;52.480;13.348;2022-12-26T12:35:46;100669.47;;;15.35;60.64
7264;BME280;3673;52.480;13.348;2022-12-26T12:38:30;100650.34;;;15.27;60.68
7264;BME280;3673;52.480;13.348;2022-12-26T12:41:14;100652.34;;;15.56;59.73
7264;BME280;3673;52.480;13.348;2022-12-26T12:43:53;100648.78;;;15.17;61.08
7264;BME280;3673;52.480;13.348;2022-12-26T12:46:31;100653.28;;;15.54;59.75
7264;BME280;3673;52.480;13.348;2022-12-26T12:49:17;100660.03;;;15.67;59.47
7264;BME280;3673;52.480;13.348;2022-12-26T12:51:54;100652.31;;;15.58;59.68
7264;BME280;3673;52.480;13.348;2022-12-26T12:54:55;100650.94;;;15.38;60.12
7264;BME280;3673;52.480;13.348;2022-12-26T12:57:32;100652.44;;;15.52;59.42
7264;BME280;3673;52.480;13.348;2022-12-26T13:00:13;100657.59;;;15.16;60.83
7264;BME280;3673;52.480;13.348;2022-12-26T13:02:45;100652.53;;;15.47;60.13
7264;BME280;3673;52.480;13.348;2022-12-26T13:05:25;100666.03;;;15.72;59.57
7264;BME280;3673;52.480;13.348;2022-12-26T13:08:05;100653.94;;;15.63;59.66
7264;BME280;3673;52.480;13.348;2022-12-26T13:10:40;100660.34;;;15.53;60.10
7264;BME280;3673;52.480;13.348;2022-12-26T13:13:19;100654.88;;;15.19;60.84
7264;BME280;3673;52.480;13.348;2022-12-26T13:15:50;100659.31;;;15.59;59.88
7264;BME280;3673;52.480;13.348;2022-12-26T13:18:21;100654.97;;;15.16;61.08
7264;BME280;3673;52.480;13.348;2022-12-26T13:20:51;100647.41;;;15.41;60.60
7264;BME280;3673;52.480;13.348;2022-12-26T13:23:27;100663.72;;;15.58;59.89
7264;BME280;3673;52.480;13.348;2022-12-26T13:26:18;100663.41;;;15.32;60.58
7264;BME280;3673;52.480;13.348;2022-12-26T13:28:55;100668.25;;;15.10;60.49
7264;BME280;3673;52.480;13.348;2022-12-26T13:31:24;100670.56;;;15.25;60.73
7264;BME280;3673;52.480;13.348;2022-12-26T13:33:51;100665.69;;;15.49;60.19
7264;BME280;3673;52.480;13.348;2022-12-26T13:36:40;100664.78;;;15.51;59.66
7264;BME280;3673;52.480;13.348;2022-12-26T13:39:37;100660.59;;;15.39;60.21
7264;BME280;3673;52.480;13.348;2022-12-26T13:42:33;100664.97;;;15.40;59.96
7264;BME280;3673;52.480;13.348;2022-12-26T13:45:57;100663.38;;;15.33;60.18
7264;BME280;3673;52.480;13.348;2022-12-26T13:49:24;100657.38;;;15.27;60.17
7264;BME280;3673;52.480;13.348;2022-12-26T13:51:58;100665.28;;;15.27;60.11